sensor_id;sensor_type;location;lat;lon;timestamp;P1;durP1;ratioP1;P2;durP2;ratioP2
24421;SDS011;12600;53.326;-6.298;2023-12-04T00:00:36;8.10;;;3.60;;
24421;SDS011;12600;53.326;-6.298;2023-12-04T00:03:26;11.38;;;3.38;;
24421;SDS011;12600;53.326;-6.298;2023-12-04T00:06:16;4.93;;;2.75;;
24421;SDS011;12600;53.326;-6.298;2023-12-04T00:09:05;7.68;;;3.10;;
24421;SDS011;12600;53.326;-6.298;2023-12-04T00:11:54;10.25;;;3.80;;
24421;SDS011;12600;53.326;-6.298;2023-12-04T00:14:44;6.05;;;3.30;;
24421;SDS011;12600;53.326;-6.298;2023-12-04T00:17:35;6.85;;;3.67;;
24421;SDS011;12600;53.326;-6.298;2023-12-04T00:20:27;8.00;;;3.17;;
24421;SDS011;12600;53.326;-6.298;2023-12-04T00:23:16;6.45;;;3.20;;
24421;SDS011;12600;53.326;-6.298;2023-12-04T00:26:06;6.45;;;3.15;;
24421;SDS011;12600;53.326;-6.298;2023-12-04T00:28:56;6.75;;;3.00;;
24421;SDS011;12600;53.326;-6.298;2023-12-04T00:31:46;8.68;;;3.83;;
24421;SDS011;12600;53.326;-6.298;2023-12-04T00:34:37;5.93;;;3.40;;
24421;SDS011;12600;53.326;-6.298;2023-12-04T00:37:26;7.68;;;3.47;;
24421;SDS011;12600;53.326;-6.298;2023-12-04T00:40:17;8.30;;;2.63;;
24421;SDS011;12600;53.326;-6.298;2023-12-04T00:43:06;6.15;;;2.47;;
24421;SDS011;12600;53.326;-6.298;2023-12-04T00:45:56;8.27;;;3.03;;
24421;SDS011;12600;53.326;-6.298;2023-12-04T00:48:45;8.57;;;2.60;;
24421;SDS011;12600;53.326;-6.298;2023-12-04T00:51:39;6.10;;;2.65;;
24421;SDS011;12600;53.326;-6.298;2023-12-04T00:54:29;5.70;;;2.88;;
24421;SDS011;12600;53.326;-6.298;2023-12-04T00:57:18;7.22;;;2.92;;
24421;SDS011;12600;53.326;-6.298;2023-12-04T01:00:12;6.60;;;2.92;;
24421;SDS011;12600;53.326;-6.298;2023-12-04T01:03:03;9.85;;;2.75;;
24421;SDS011;12600;53.326;-6.298;2023-12-04T01:05:53;7.38;;;2.78;;
24421;SDS011;12600;53.326;-6.298;2023-12-04T01:08:43;6.60;;;2.80;;
24421;SDS011;12600;53.326;-6.298;2023-12-04T01:11:33;10.40;;;3.33;;
24421;SDS011;12600;53.326;-6.298;2023-12-04T01:14:24;6.50;;;3.10;;
24421;SDS011;12600;53.326;-6.298;2023-12-04T01:17:13;7.55;;;3.28;;
24421;SDS011;12600;53.326;-6.298;2023-12-04T01:20:03;11.57;;;2.80;;
24421;SDS011;12600;53.326;-6.298;2023-12-04T01:22:54;10.73;;;3.00;;
24421;SDS011;12600;53.326;-6.298;2023-12-04T01:25:45;4.30;;;2.20;;
24421;SDS011;12600;53.326;-6.298;2023-12-04T01:28:34;7.22;;;3.30;;
24421;SDS011;12600;53.326;-6.298;2023-12-04T01:31:24;4.85;;;2.60;;
24421;SDS011;12600;53.326;-6.298;2023-12-04T01:34:13;9.35;;;2.75;;
24421;SDS011;12600;53.326;-6.298;2023-12-04T01:37:02;5.05;;;2.45;;
24421;SDS011;12600;53.326;-6.298;2023-12-04T01:39:53;7.70;;;2.47;;
24421;SDS011;12600;53.326;-6.298;2023-12-04T01:42:44;5.10;;;2.28;;
24421;SDS011;12600;53.326;-6.298;2023-12-04T01:45:34;6.25;;;2.50;;
24421;SDS011;12600;53.326;-6.298;2023-12-04T01:48:23;5.93;;;2.20;;
24421;SDS011;12600;53.326;-6.298;2023-12-04T01:51:14;6.32;;;2.30;;
24421;SDS011;12600;53.326;-6.298;2023-12-04T01:54:05;5.75;;;2.60;;
24421;SDS011;12600;53.326;-6.298;2023-12-04T01:56:55;6.05;;;2.58;;
24421;SDS011;12600;53.326;-6.298;2023-12-04T01:59:47;6.18;;;2.67;;
24421;SDS011;12600;53.326;-6.298;2023-12-04T02:02:36;6.40;;;3.15;;
24421;SDS011;12600;53.326;-6.298;2023-12-04T02:05:26;7.28;;;2.67;;
24421;SDS011;12600;53.326;-6.298;2023-12-04T02:08:16;4.97;;;2.83;;
24421;SDS011;12600;53.326;-6.298;2023-12-04T02:11:06;6.13;;;2.67;;
24421;SDS011;12600;53.326;-6.298;2023-12-04T02:13:56;6.88;;;3.05;;
24421;SDS011;12600;53.326;-6.298;2023-12-04T02:16:47;5.95;;;2.75;;
24421;SDS011;12600;53.326;-6.298;2023-12-04T02:19:38;8.40;;;3.03;;
24421;SDS011;12600;53.326;-6.298;2023-12-04T02:22:27;8.32;;;3.35;;
24421;SDS011;12600;53.326;-6.298;2023-12-04T02:25:18;8.23;;;3.50;;
24421;SDS011;12600;53.326;-6.298;2023-12-04T02:28:21;10.13;;;2.70;;
24421;SDS011;12600;53.326;-6.298;2023-12-04T02:31:11;8.93;;;3.03;;
24421;SDS011;12600;53.326;-6.298;2023-12-04T02:34:01;8.48;;;2.90;;
24421;SDS011;12600;53.326;-6.298;2023-12-04T02:36:54;7.72;;;2.70;;
24421;SDS011;12600;53.326;-6.298;2023-12-04T02:39:45;6.43;;;3.00;;
24421;SDS011;12600;53.326;-6.298;2023-12-04T02:42:37;10.02;;;2.42;;
24421;SDS011;12600;53.326;-6.298;2023-12-04T02:45:26;11.63;;;3.45;;
24421;SDS011;12600;53.326;-6.298;2023-12-04T02:48:16;8.05;;;3.10;;
24421;SDS011;12600;53.326;-6.298;2023-12-04T02:51:06;8.05;;;3.17;;
24421;SDS011;12600;53.326;-6.298;2023-12-04T02:53:56;8.35;;;3.20;;
24421;SDS011;12600;53.326;-6.298;2023-12-04T02:56:47;4.85;;;2.40;;
24421;SDS011;12600;53.326;-6.298;2023-12-04T02:59:37;9.48;;;3.03;;
24421;SDS011;12600;53.326;-6.298;2023-12-04T03:02:27;12.20;;;2.80;;
24421;SDS011;12600;53.326;-6.298;2023-12-04T03:05:16;8.07;;;3.47;;
24421;SDS011;12600;53.326;-6.298;2023-12-04T03:08:05;10.98;;;3.60;;
24421;SDS011;12600;53.326;-6.298;2023-12-04T03:10:55;9.27;;;3.00;;
24421;SDS011;12600;53.326;-6.298;2023-12-04T03:13:44;10.90;;;2.95;;
24421;SDS011;12600;53.326;-6.298;2023-12-04T03:16:35;8.05;;;2.80;;
24421;SDS011;12600;53.326;-6.298;2023-12-04T03:19:24;5.18;;;2.85;;
24421;SDS011;12600;53.326;-6.298;2023-12-04T03:22:14;10.43;;;3.30;;
24421;SDS011;12600;53.326;-6.298;2023-12-04T03:25:04;10.45;;;2.80;;
24421;SDS011;12600;53.326;-6.298;2023-12-04T03:27:55;9.93;;;3.20;;
24421;SDS011;12600;53.326;-6.298;2023-12-04T03:30:44;5.32;;;2.95;;
24421;SDS011;12600;53.326;-6.298;2023-12-04T03:33:35;6.40;;;2.22;;
24421;SDS011;12600;53.326;-6.298;2023-12-04T03:36:25;8.70;;;2.80;;
24421;SDS011;12600;53.326;-6.298;2023-12-04T03:39:14;7.15;;;2.67;;
24421;SDS011;12600;53.326;-6.298;2023-12-04T03:42:03;6.78;;;2.55;;
24421;SDS011;12600;53.326;-6.298;2023-12-04T03:44:53;6.78;;;2.65;;
24421;SDS011;12600;53.326;-6.298;2023-12-04T03:47:42;10.27;;;2.88;;
24421;SDS011;12600;53.326;-6.298;2023-12-04T03:50:33;5.32;;;3.00;;
24421;SDS011;12600;53.326;-6.298;2023-12-04T03:53:23;7.63;;;2.95;;
24421;SDS011;12600;53.326;-6.298;2023-12-04T03:56:12;5.40;;;2.40;;
24421;SDS011;12600;53.326;-6.298;2023-12-04T03:59:02;7.18;;;2.38;;
24421;SDS011;12600;53.326;-6.298;2023-12-04T04:01:51;10.13;;;2.97;;
24421;SDS011;12600;53.326;-6.298;2023-12-04T04:04:40;5.63;;;2.75;;
24421;SDS011;12600;53.326;-6.298;2023-12-04T04:07:31;8.48;;;2.83;;
24421;SDS011;12600;53.326;-6.298;2023-12-04T04:10:21;10.35;;;3.30;;
24421;SDS011;12600;53.326;-6.298;2023-12-04T04:13:11;6.85;;;2.50;;
24421;SDS011;12600;53.326;-6.298;2023-12-04T04:16:00;8.77;;;2.60;;
24421;SDS011;12600;53.326;-6.298;2023-12-04T04:18:50;6.93;;;2.95;;
24421;SDS011;12600;53.326;-6.298;2023-12-04T04:21:39;8.85;;;2.75;;
24421;SDS011;12600;53.326;-6.298;2023-12-04T04:24:30;7.63;;;2.90;;
24421;SDS011;12600;53.326;-6.298;2023-12-04T04:27:20;6.38;;;3.10;;
24421;SDS011;12600;53.326;-6.298;2023-12-04T04:30:09;4.50;;;2.70;;
24421;SDS011;12600;53.326;-6.298;2023-12-04T04:33:01;7.93;;;2.90;;
24421;SDS011;12600;53.326;-6.298;2023-12-04T04:35:51;7.57;;;2.70;;
24421;SDS011;12600;53.326;-6.298;2023-12-04T04:38:41;7.07;;;3.30;;
24421;SDS011;12600;53.326;-6.298;2023-12-04T04:41:31;7.93;;;3.13;;
24421;SDS011;12600;53.326;-6.298;2023-12-04T04:44:21;7.80;;;3.05;;
24421;SDS011;12600;53.326;-6.298;2023-12-04T04:47:12;8.40;;;3.25;;
24421;SDS011;12600;53.326;-6.298;2023-12-04T04:50:02;5.15;;;3.00;;
24421;SDS011;12600;53.326;-6.298;2023-12-04T04:52:52;4.90;;;2.78;;
24421;SDS011;12600;53.326;-6.298;2023-12-04T04:55:41;7.20;;;3.55;;
24421;SDS011;12600;53.326;-6.298;2023-12-04T04:58:36;7.68;;;3.60;;
24421;SDS011;12600;53.326;-6.298;2023-12-04T05:01:26;7.05;;;3.75;;
24421;SDS011;12600;53.326;-6.298;2023-12-04T05:04:15;7.03;;;3.70;;
24421;SDS011;12600;53.326;-6.298;2023-12-04T05:07:05;7.40;;;3.83;;
24421;SDS011;12600;53.326;-6.298;2023-12-04T05:09:54;6.45;;;3.85;;
24421;SDS011;12600;53.326;-6.298;2023-12-04T05:12:44;6.88;;;4.70;;
24421;SDS011;12600;53.326;-6.298;2023-12-04T05:15:34;8.27;;;4.50;;
24421;SDS011;12600;53.326;-6.298;2023-12-04T05:18:24;9.32;;;4.55;;
24421;SDS011;12600;53.326;-6.298;2023-12-04T05:21:14;7.95;;;4.55;;
24421;SDS011;12600;53.326;-6.298;2023-12-04T05:24:03;7.85;;;4.18;;
24421;SDS011;12600;53.326;-6.298;2023-12-04T05:26:53;11.07;;;5.10;;
24421;SDS011;12600;53.326;-6.298;2023-12-04T05:29:42;9.98;;;5.88;;
24421;SDS011;12600;53.326;-6.298;2023-12-04T05:32:33;11.30;;;5.75;;
24421;SDS011;12600;53.326;-6.298;2023-12-04T05:35:23;10.65;;;5.55;;
24421;SDS011;12600;53.326;-6.298;2023-12-04T05:38:12;7.22;;;4.18;;
24421;SDS011;12600;53.326;-6.298;2023-12-04T05:41:02;7.45;;;4.70;;
24421;SDS011;12600;53.326;-6.298;2023-12-04T05:43:51;10.88;;;5.72;;
24421;SDS011;12600;53.326;-6.298;2023-12-04T05:46:41;13.20;;;5.80;;
24421;SDS011;12600;53.326;-6.298;2023-12-04T05:49:32;12.52;;;5.38;;
24421;SDS011;12600;53.326;-6.298;2023-12-04T05:52:21;10.50;;;5.15;;
24421;SDS011;12600;53.326;-6.298;2023-12-04T05:55:11;9.27;;;5.72;;
24421;SDS011;12600;53.326;-6.298;2023-12-04T05:58:00;10.07;;;5.38;;
24421;SDS011;12600;53.326;-6.298;2023-12-04T06:00:50;7.60;;;4.80;;
24421;SDS011;12600;53.326;-6.298;2023-12-04T06:03:39;12.23;;;6.10;;
24421;SDS011;12600;53.326;-6.298;2023-12-04T06:06:30;8.05;;;5.00;;
24421;SDS011;12600;53.326;-6.298;2023-12-04T06:09:20;10.18;;;5.80;;
24421;SDS011;12600;53.326;-6.298;2023-12-04T06:12:09;9.27;;;5.93;;
24421;SDS011;12600;53.326;-6.298;2023-12-04T06:14:58;11.02;;;6.53;;
24421;SDS011;12600;53.326;-6.298;2023-12-04T06:17:50;12.30;;;7.18;;
24421;SDS011;12600;53.326;-6.298;2023-12-04T06:20:39;8.98;;;4.88;;
24421;SDS011;12600;53.326;-6.298;2023-12-04T06:23:30;12.00;;;6.63;;
24421;SDS011;12600;53.326;-6.298;2023-12-04T06:26:20;16.38;;;7.20;;
24421;SDS011;12600;53.326;-6.298;2023-12-04T06:29:10;11.27;;;6.95;;
24421;SDS011;12600;53.326;-6.298;2023-12-04T06:32:01;11.80;;;7.20;;
24421;SDS011;12600;53.326;-6.298;2023-12-04T06:34:52;11.95;;;6.07;;
24421;SDS011;12600;53.326;-6.298;2023-12-04T06:37:43;10.82;;;6.97;;
24421;SDS011;12600;53.326;-6.298;2023-12-04T06:40:35;11.60;;;7.32;;
24421;SDS011;12600;53.326;-6.298;2023-12-04T06:43:26;12.27;;;7.43;;
24421;SDS011;12600;53.326;-6.298;2023-12-04T06:46:15;11.93;;;6.88;;
24421;SDS011;12600;53.326;-6.298;2023-12-04T06:49:08;13.32;;;7.53;;
24421;SDS011;12600;53.326;-6.298;2023-12-04T06:52:00;12.30;;;7.80;;
24421;SDS011;12600;53.326;-6.298;2023-12-04T06:54:50;10.77;;;7.03;;
24421;SDS011;12600;53.326;-6.298;2023-12-04T06:57:41;9.77;;;6.30;;
24421;SDS011;12600;53.326;-6.298;2023-12-04T07:00:30;12.15;;;6.72;;
24421;SDS011;12600;53.326;-6.298;2023-12-04T07:03:20;11.70;;;7.30;;
24421;SDS011;12600;53.326;-6.298;2023-12-04T07:06:10;11.10;;;7.45;;
24421;SDS011;12600;53.326;-6.298;2023-12-04T07:08:59;10.70;;;7.03;;
24421;SDS011;12600;53.326;-6.298;2023-12-04T07:11:49;8.45;;;5.65;;
24421;SDS011;12600;53.326;-6.298;2023-12-04T07:14:39;11.23;;;7.45;;
24421;SDS011;12600;53.326;-6.298;2023-12-04T07:17:29;10.80;;;7.18;;
24421;SDS011;12600;53.326;-6.298;2023-12-04T07:20:18;11.38;;;7.72;;
24421;SDS011;12600;53.326;-6.298;2023-12-04T07:26:01;11.20;;;5.95;;
24421;SDS011;12600;53.326;-6.298;2023-12-04T07:28:50;10.23;;;6.35;;
24421;SDS011;12600;53.326;-6.298;2023-12-04T07:31:42;10.27;;;6.82;;
24421;SDS011;12600;53.326;-6.298;2023-12-04T07:34:31;11.18;;;7.47;;
24421;SDS011;12600;53.326;-6.298;2023-12-04T07:37:21;14.18;;;7.60;;
24421;SDS011;12600;53.326;-6.298;2023-12-04T07:40:10;11.20;;;6.38;;
24421;SDS011;12600;53.326;-6.298;2023-12-04T07:43:01;13.90;;;7.82;;
24421;SDS011;12600;53.326;-6.298;2023-12-04T07:45:50;13.68;;;7.38;;
24421;SDS011;12600;53.326;-6.298;2023-12-04T07:48:41;11.00;;;6.82;;
24421;SDS011;12600;53.326;-6.298;2023-12-04T07:51:32;11.15;;;6.85;;
24421;SDS011;12600;53.326;-6.298;2023-12-04T07:54:22;12.60;;;6.72;;
24421;SDS011;12600;53.326;-6.298;2023-12-04T07:57:13;10.70;;;6.93;;
24421;SDS011;12600;53.326;-6.298;2023-12-04T08:00:04;13.35;;;6.75;;
24421;SDS011;12600;53.326;-6.298;2023-12-04T08:02:55;10.85;;;5.93;;
24421;SDS011;12600;53.326;-6.298;2023-12-04T08:05:46;9.65;;;5.47;;
24421;SDS011;12600;53.326;-6.298;2023-12-04T08:08:35;9.80;;;6.15;;
24421;SDS011;12600;53.326;-6.298;2023-12-04T08:11:25;12.23;;;7.20;;
24421;SDS011;12600;53.326;-6.298;2023-12-04T08:14:14;11.15;;;6.88;;
24421;SDS011;12600;53.326;-6.298;2023-12-04T08:17:04;10.18;;;6.25;;
24421;SDS011;12600;53.326;-6.298;2023-12-04T08:19:53;11.82;;;6.90;;
24421;SDS011;12600;53.326;-6.298;2023-12-04T08:22:44;13.63;;;7.40;;
24421;SDS011;12600;53.326;-6.298;2023-12-04T08:25:33;5.50;;;3.47;;
24421;SDS011;12600;53.326;-6.298;2023-12-04T08:28:24;10.85;;;6.95;;
24421;SDS011;12600;53.326;-6.298;2023-12-04T08:31:14;11.15;;;6.78;;
24421;SDS011;12600;53.326;-6.298;2023-12-04T08:34:04;11.45;;;6.95;;
24421;SDS011;12600;53.326;-6.298;2023-12-04T08:36:53;8.20;;;5.57;;
24421;SDS011;12600;53.326;-6.298;2023-12-04T08:39:44;11.82;;;7.15;;
24421;SDS011;12600;53.326;-6.298;2023-12-04T08:42:34;13.70;;;7.30;;
24421;SDS011;12600;53.326;-6.298;2023-12-04T08:45:23;13.18;;;7.90;;
24421;SDS011;12600;53.326;-6.298;2023-12-04T08:48:13;10.52;;;5.60;;
24421;SDS011;12600;53.326;-6.298;2023-12-04T08:51:02;11.43;;;7.15;;
24421;SDS011;12600;53.326;-6.298;2023-12-04T08:53:52;13.43;;;7.15;;
24421;SDS011;12600;53.326;-6.298;2023-12-04T08:56:43;14.05;;;8.13;;
24421;SDS011;12600;53.326;-6.298;2023-12-04T08:59:33;16.45;;;7.50;;
24421;SDS011;12600;53.326;-6.298;2023-12-04T09:02:23;11.23;;;6.72;;
24421;SDS011;12600;53.326;-6.298;2023-12-04T09:05:12;14.48;;;7.90;;
24421;SDS011;12600;53.326;-6.298;2023-12-04T09:08:02;13.15;;;6.88;;
24421;SDS011;12600;53.326;-6.298;2023-12-04T09:10:55;12.05;;;7.05;;
24421;SDS011;12600;53.326;-6.298;2023-12-04T09:14:06;14.30;;;7.82;;
24421;SDS011;12600;53.326;-6.298;2023-12-04T09:16:55;15.23;;;8.02;;
24421;SDS011;12600;53.326;-6.298;2023-12-04T09:19:44;12.85;;;7.07;;
24421;SDS011;12600;53.326;-6.298;2023-12-04T09:22:34;14.55;;;7.53;;
24421;SDS011;12600;53.326;-6.298;2023-12-04T09:25:38;14.02;;;7.35;;
24421;SDS011;12600;53.326;-6.298;2023-12-04T09:28:28;13.57;;;7.53;;
24421;SDS011;12600;53.326;-6.298;2023-12-04T09:31:18;13.35;;;7.40;;
24421;SDS011;12600;53.326;-6.298;2023-12-04T09:34:09;12.32;;;7.45;;
24421;SDS011;12600;53.326;-6.298;2023-12-04T09:36:58;15.35;;;8.02;;
24421;SDS011;12600;53.326;-6.298;2023-12-04T09:39:57;11.38;;;6.47;;
24421;SDS011;12600;53.326;-6.298;2023-12-04T09:42:46;13.98;;;7.75;;
24421;SDS011;12600;53.326;-6.298;2023-12-04T09:45:36;15.65;;;7.80;;
24421;SDS011;12600;53.326;-6.298;2023-12-04T09:48:29;13.88;;;7.38;;
24421;SDS011;12600;53.326;-6.298;2023-12-04T09:51:19;14.35;;;7.35;;
24421;SDS011;12600;53.326;-6.298;2023-12-04T09:54:10;12.23;;;6.43;;
24421;SDS011;12600;53.326;-6.298;2023-12-04T09:57:00;14.68;;;7.22;;
24421;SDS011;12600;53.326;-6.298;2023-12-04T09:59:51;13.95;;;7.70;;
24421;SDS011;12600;53.326;-6.298;2023-12-04T10:02:41;13.23;;;6.97;;
24421;SDS011;12600;53.326;-6.298;2023-12-04T10:05:32;11.63;;;7.05;;
24421;SDS011;12600;53.326;-6.298;2023-12-04T10:08:22;17.58;;;8.77;;
24421;SDS011;12600;53.326;-6.298;2023-12-04T10:11:12;15.25;;;8.30;;
24421;SDS011;12600;53.326;-6.298;2023-12-04T10:14:02;11.75;;;7.72;;
24421;SDS011;12600;53.326;-6.298;2023-12-04T10:16:51;11.23;;;6.85;;
24421;SDS011;12600;53.326;-6.298;2023-12-04T10:19:41;12.40;;;6.90;;
24421;SDS011;12600;53.326;-6.298;2023-12-04T10:22:32;15.57;;;8.05;;
24421;SDS011;12600;53.326;-6.298;2023-12-04T10:25:21;12.73;;;7.57;;
24421;SDS011;12600;53.326;-6.298;2023-12-04T10:28:12;12.25;;;7.80;;
24421;SDS011;12600;53.326;-6.298;2023-12-04T10:31:03;14.45;;;7.72;;
24421;SDS011;12600;53.326;-6.298;2023-12-04T10:33:54;18.75;;;8.13;;
24421;SDS011;12600;53.326;-6.298;2023-12-04T10:36:44;14.00;;;6.72;;
24421;SDS011;12600;53.326;-6.298;2023-12-04T10:39:44;13.65;;;7.40;;
24421;SDS011;12600;53.326;-6.298;2023-12-04T10:42:38;16.30;;;7.05;;
24421;SDS011;12600;53.326;-6.298;2023-12-04T10:45:27;13.63;;;7.53;;
24421;SDS011;12600;53.326;-6.298;2023-12-04T10:48:17;15.15;;;7.63;;
24421;SDS011;12600;53.326;-6.298;2023-12-04T10:51:08;16.75;;;6.90;;
24421;SDS011;12600;53.326;-6.298;2023-12-04T10:53:58;14.77;;;7.75;;
24421;SDS011;12600;53.326;-6.298;2023-12-04T10:56:49;12.82;;;7.28;;
24421;SDS011;12600;53.326;-6.298;2023-12-04T10:59:41;13.73;;;7.35;;
24421;SDS011;12600;53.326;-6.298;2023-12-04T11:02:33;14.18;;;7.60;;
24421;SDS011;12600;53.326;-6.298;2023-12-04T11:05:25;14.35;;;7.25;;
24421;SDS011;12600;53.326;-6.298;2023-12-04T11:08:16;13.93;;;7.03;;
24421;SDS011;12600;53.326;-6.298;2023-12-04T11:11:08;14.45;;;6.82;;
24421;SDS011;12600;53.326;-6.298;2023-12-04T11:14:05;11.43;;;5.93;;
24421;SDS011;12600;53.326;-6.298;2023-12-04T11:17:01;12.18;;;6.13;;
24421;SDS011;12600;53.326;-6.298;2023-12-04T11:19:59;10.75;;;5.50;;
24421;SDS011;12600;53.326;-6.298;2023-12-04T11:22:57;15.88;;;8.32;;
24421;SDS011;12600;53.326;-6.298;2023-12-04T11:25:46;14.13;;;7.03;;
24421;SDS011;12600;53.326;-6.298;2023-12-04T11:28:36;17.80;;;7.75;;
24421;SDS011;12600;53.326;-6.298;2023-12-04T11:31:28;13.05;;;6.78;;
24421;SDS011;12600;53.326;-6.298;2023-12-04T11:34:18;15.55;;;8.20;;
24421;SDS011;12600;53.326;-6.298;2023-12-04T11:37:07;14.73;;;7.18;;
24421;SDS011;12600;53.326;-6.298;2023-12-04T11:39:58;15.40;;;7.30;;
24421;SDS011;12600;53.326;-6.298;2023-12-04T11:42:52;14.00;;;6.40;;
24421;SDS011;12600;53.326;-6.298;2023-12-04T11:45:42;12.88;;;6.72;;
24421;SDS011;12600;53.326;-6.298;2023-12-04T11:48:33;13.80;;;6.63;;
24421;SDS011;12600;53.326;-6.298;2023-12-04T11:54:57;15.95;;;8.10;;
24421;SDS011;12600;53.326;-6.298;2023-12-04T11:57:53;13.63;;;7.78;;
24421;SDS011;12600;53.326;-6.298;2023-12-04T12:00:44;12.27;;;7.35;;
24421;SDS011;12600;53.326;-6.298;2023-12-04T12:03:37;13.30;;;6.45;;
24421;SDS011;12600;53.326;-6.298;2023-12-04T12:06:27;13.52;;;6.70;;
24421;SDS011;12600;53.326;-6.298;2023-12-04T12:09:17;18.30;;;7.47;;
24421;SDS011;12600;53.326;-6.298;2023-12-04T12:12:07;19.05;;;8.75;;
24421;SDS011;12600;53.326;-6.298;2023-12-04T12:14:57;15.02;;;7.25;;
24421;SDS011;12600;53.326;-6.298;2023-12-04T12:17:47;13.20;;;6.78;;
24421;SDS011;12600;53.326;-6.298;2023-12-04T12:20:39;16.67;;;8.45;;
24421;SDS011;12600;53.326;-6.298;2023-12-04T12:23:28;15.93;;;8.00;;
24421;SDS011;12600;53.326;-6.298;2023-12-04T12:26:19;18.08;;;9.48;;
24421;SDS011;12600;53.326;-6.298;2023-12-04T12:29:08;14.07;;;7.18;;
24421;SDS011;12600;53.326;-6.298;2023-12-04T12:31:57;14.45;;;8.15;;
24421;SDS011;12600;53.326;-6.298;2023-12-04T12:34:47;17.80;;;9.32;;
24421;SDS011;12600;53.326;-6.298;2023-12-04T12:37:39;19.15;;;9.55;;
24421;SDS011;12600;53.326;-6.298;2023-12-04T12:40:29;14.95;;;7.88;;
24421;SDS011;12600;53.326;-6.298;2023-12-04T12:43:19;16.75;;;8.32;;
24421;SDS011;12600;53.326;-6.298;2023-12-04T12:46:10;17.30;;;8.80;;
24421;SDS011;12600;53.326;-6.298;2023-12-04T12:49:00;17.65;;;8.98;;
24421;SDS011;12600;53.326;-6.298;2023-12-04T12:51:52;14.00;;;7.50;;
24421;SDS011;12600;53.326;-6.298;2023-12-04T12:54:44;16.55;;;7.57;;
24421;SDS011;12600;53.326;-6.298;2023-12-04T12:57:35;15.90;;;8.63;;
24421;SDS011;12600;53.326;-6.298;2023-12-04T13:00:26;16.52;;;7.85;;
24421;SDS011;12600;53.326;-6.298;2023-12-04T13:03:16;15.07;;;7.82;;
24421;SDS011;12600;53.326;-6.298;2023-12-04T13:06:07;14.70;;;7.15;;
24421;SDS011;12600;53.326;-6.298;2023-12-04T13:08:57;17.88;;;8.18;;
24421;SDS011;12600;53.326;-6.298;2023-12-04T13:11:48;13.70;;;7.35;;
24421;SDS011;12600;53.326;-6.298;2023-12-04T13:14:39;17.52;;;7.97;;
24421;SDS011;12600;53.326;-6.298;2023-12-04T13:17:28;18.02;;;8.38;;
24421;SDS011;12600;53.326;-6.298;2023-12-04T13:20:18;15.15;;;7.20;;
24421;SDS011;12600;53.326;-6.298;2023-12-04T13:23:07;14.57;;;7.25;;
24421;SDS011;12600;53.326;-6.298;2023-12-04T13:25:56;12.20;;;6.78;;
24421;SDS011;12600;53.326;-6.298;2023-12-04T13:28:47;13.38;;;7.68;;
24421;SDS011;12600;53.326;-6.298;2023-12-04T13:31:37;16.05;;;8.30;;
24421;SDS011;12600;53.326;-6.298;2023-12-04T13:34:26;17.90;;;8.75;;
24421;SDS011;12600;53.326;-6.298;2023-12-04T13:37:16;16.30;;;8.13;;
24421;SDS011;12600;53.326;-6.298;2023-12-04T13:40:06;15.15;;;6.63;;
24421;SDS011;12600;53.326;-6.298;2023-12-04T13:42:59;14.10;;;7.60;;
24421;SDS011;12600;53.326;-6.298;2023-12-04T13:46:08;11.05;;;5.72;;
24421;SDS011;12600;53.326;-6.298;2023-12-04T13:48:58;14.82;;;7.72;;
24421;SDS011;12600;53.326;-6.298;2023-12-04T13:51:48;12.27;;;6.25;;
24421;SDS011;12600;53.326;-6.298;2023-12-04T13:54:37;14.90;;;7.80;;
24421;SDS011;12600;53.326;-6.298;2023-12-04T13:57:32;15.75;;;7.50;;
24421;SDS011;12600;53.326;-6.298;2023-12-04T14:00:31;14.60;;;7.82;;
24421;SDS011;12600;53.326;-6.298;2023-12-04T14:03:22;14.73;;;7.35;;
24421;SDS011;12600;53.326;-6.298;2023-12-04T14:06:12;12.32;;;7.20;;
24421;SDS011;12600;53.326;-6.298;2023-12-04T14:09:03;13.55;;;7.28;;
24421;SDS011;12600;53.326;-6.298;2023-12-04T14:11:57;14.68;;;7.00;;
24421;SDS011;12600;53.326;-6.298;2023-12-04T14:14:46;12.75;;;5.53;;
24421;SDS011;12600;53.326;-6.298;2023-12-04T14:17:35;15.57;;;7.78;;
24421;SDS011;12600;53.326;-6.298;2023-12-04T14:20:28;14.43;;;8.43;;
24421;SDS011;12600;53.326;-6.298;2023-12-04T14:23:17;11.68;;;5.70;;
24421;SDS011;12600;53.326;-6.298;2023-12-04T14:26:07;12.02;;;6.68;;
24421;SDS011;12600;53.326;-6.298;2023-12-04T14:28:57;14.70;;;7.32;;
24421;SDS011;12600;53.326;-6.298;2023-12-04T14:31:48;19.08;;;7.93;;
24421;SDS011;12600;53.326;-6.298;2023-12-04T14:34:38;18.77;;;8.48;;
24421;SDS011;12600;53.326;-6.298;2023-12-04T14:37:28;14.70;;;8.15;;
24421;SDS011;12600;53.326;-6.298;2023-12-04T14:40:18;13.32;;;7.40;;
24421;SDS011;12600;53.326;-6.298;2023-12-04T14:43:08;15.45;;;7.22;;
24421;SDS011;12600;53.326;-6.298;2023-12-04T14:45:59;9.43;;;4.55;;
24421;SDS011;12600;53.326;-6.298;2023-12-04T14:48:49;13.70;;;6.60;;
24421;SDS011;12600;53.326;-6.298;2023-12-04T14:51:39;11.63;;;5.68;;
24421;SDS011;12600;53.326;-6.298;2023-12-04T14:54:30;13.95;;;6.60;;
24421;SDS011;12600;53.326;-6.298;2023-12-04T14:57:39;7.40;;;3.75;;
24421;SDS011;12600;53.326;-6.298;2023-12-04T15:00:46;7.18;;;4.22;;
24421;SDS011;12600;53.326;-6.298;2023-12-04T15:03:55;8.98;;;4.60;;
24421;SDS011;12600;53.326;-6.298;2023-12-04T15:07:10;9.32;;;4.82;;
24421;SDS011;12600;53.326;-6.298;2023-12-04T15:10:33;6.72;;;4.30;;
24421;SDS011;12600;53.326;-6.298;2023-12-04T15:13:31;6.75;;;3.88;;
24421;SDS011;12600;53.326;-6.298;2023-12-04T15:16:41;8.88;;;5.00;;
24421;SDS011;12600;53.326;-6.298;2023-12-04T15:19:36;9.93;;;4.47;;
24421;SDS011;12600;53.326;-6.298;2023-12-04T15:22:40;9.23;;;4.72;;
24421;SDS011;12600;53.326;-6.298;2023-12-04T15:25:30;7.93;;;3.90;;
24421;SDS011;12600;53.326;-6.298;2023-12-04T15:28:19;7.43;;;3.75;;
24421;SDS011;12600;53.326;-6.298;2023-12-04T15:31:10;9.40;;;3.67;;
24421;SDS011;12600;53.326;-6.298;2023-12-04T15:33:58;8.88;;;4.70;;
24421;SDS011;12600;53.326;-6.298;2023-12-04T15:36:48;10.27;;;4.25;;
24421;SDS011;12600;53.326;-6.298;2023-12-04T15:39:37;6.75;;;3.45;;
24421;SDS011;12600;53.326;-6.298;2023-12-04T15:42:28;7.82;;;3.40;;
24421;SDS011;12600;53.326;-6.298;2023-12-04T15:45:19;6.68;;;3.35;;
24421;SDS011;12600;53.326;-6.298;2023-12-04T15:48:08;6.68;;;3.38;;
24421;SDS011;12600;53.326;-6.298;2023-12-04T15:50:58;8.68;;;3.80;;
24421;SDS011;12600;53.326;-6.298;2023-12-04T15:53:47;7.50;;;3.42;;
24421;SDS011;12600;53.326;-6.298;2023-12-04T15:56:38;8.32;;;3.88;;
24421;SDS011;12600;53.326;-6.298;2023-12-04T15:59:28;6.03;;;3.33;;
24421;SDS011;12600;53.326;-6.298;2023-12-04T16:02:19;8.25;;;2.90;;
24421;SDS011;12600;53.326;-6.298;2023-12-04T16:05:07;5.32;;;2.80;;
24421;SDS011;12600;53.326;-6.298;2023-12-04T16:07:59;6.60;;;3.30;;
24421;SDS011;12600;53.326;-6.298;2023-12-04T16:10:48;5.95;;;3.20;;
24421;SDS011;12600;53.326;-6.298;2023-12-04T16:13:37;6.20;;;3.05;;
24421;SDS011;12600;53.326;-6.298;2023-12-04T16:16:27;5.25;;;2.97;;
24421;SDS011;12600;53.326;-6.298;2023-12-04T16:19:18;6.80;;;3.20;;
24421;SDS011;12600;53.326;-6.298;2023-12-04T16:22:08;4.95;;;2.65;;
24421;SDS011;12600;53.326;-6.298;2023-12-04T16:24:57;4.68;;;3.00;;
24421;SDS011;12600;53.326;-6.298;2023-12-04T16:27:46;5.22;;;2.90;;
24421;SDS011;12600;53.326;-6.298;2023-12-04T16:30:36;4.45;;;2.80;;
24421;SDS011;12600;53.326;-6.298;2023-12-04T16:33:26;6.65;;;2.72;;
24421;SDS011;12600;53.326;-6.298;2023-12-04T16:36:17;3.80;;;2.63;;
24421;SDS011;12600;53.326;-6.298;2023-12-04T16:39:06;4.25;;;2.60;;
24421;SDS011;12600;53.326;-6.298;2023-12-04T16:41:56;5.13;;;3.00;;
24421;SDS011;12600;53.326;-6.298;2023-12-04T16:44:45;6.22;;;3.60;;
24421;SDS011;12600;53.326;-6.298;2023-12-04T16:47:35;4.93;;;3.15;;
24421;SDS011;12600;53.326;-6.298;2023-12-04T16:50:24;6.68;;;2.83;;